Time;durP1;ratioP1;P1;durP2;ratioP2;P2;SDS_P1;SDS_P2;PMS_P1;PMS_P2;Temp;Humidity;BMP_temperature;BMP_pressure;BME280_temperature;BME280_humidity;BME280_pressure;Samples;Min_cycle;Max_cycle;Signal;HPM_P1;HPM_P2
2022/12/31 00:01:07;;;;;;;;;;;;;;;;;;4997588;28;8474;-68
2022/12/31 00:06:32;;;;;;;;;;;;;;;;;;5015639;28;7093;-69
2022/12/31 00:08:59;;;;;;;;;;;;;;;;;;5015034;28;7180;-69
2022/12/31 00:14:27;;;;;;;;;;;;;;;;;;5034711;28;6699;-68
2022/12/31 00:19:44;;;;;;;;;;;;;;;;;;5035416;28;7027;-69
2022/12/31 00:22:09;;;;;;;;;;;;;;;;;;5035207;28;7401;-69
2022/12/31 00:24:35;;;;;;;;;;;;;;;;;;5033258;28;8497;-68
2022/12/31 00:27:01;;;;;;;;;;;;;;;;;;5034766;28;6944;-68
2022/12/31 00:29:26;;;;;;;;;;;;;;;;;;5034543;28;7410;-68
2022/12/31 00:31:52;;;;;;;;;;;;;;;;;;5034485;28;7663;-68
2022/12/31 00:34:17;;;;;;;;;;;;;;;;;;5034636;28;7200;-71
2022/12/31 00:37:04;;;;;;;;;;;;;;;;;;5034367;28;7122;-69
2022/12/31 00:39:30;;;;;;;;;;;;;;;;;;5034307;28;8237;-69
2022/12/31 00:41:55;;;;;;;;;;;;;;;;;;5034491;28;7155;-69
2022/12/31 00:44:38;;;;;;;;;;;;;;;;;;5034191;28;6951;-68
2022/12/31 00:47:04;;;;;;;;;;;;;;;;;;5034209;28;6947;-68
2022/12/31 00:49:30;;;;;;;;;;;;;;;;;;5033980;28;7208;-69
2022/12/31 00:51:56;;;;;;;;;;;;;;;;;;5034327;28;7145;-68
2022/12/31 00:54:22;;;;;;;;;;;;;;;;;;5034561;28;6935;-68
2022/12/31 00:56:47;;;;;;;;;;;;;;;;;;5034404;28;7048;-68
2022/12/31 01:02:16;;;;;;;;;;;;;;;;;;5034064;28;7380;-68
2022/12/31 01:04:43;;;;;;;;;;;;;;;;;;5034324;28;7034;-68
2022/12/31 01:07:09;;;;;;;;;;;;;;;;;;5034368;28;7174;-69
2022/12/31 01:09:35;;;;;;;;;;;;;;;;;;5034210;28;7205;-69
2022/12/31 01:14:52;;;;;;;;;;;;;;;;;;5034751;28;7039;-68
2022/12/31 01:17:52;;;;;;;;;;;;;;;;;;5034263;28;7076;-68
2022/12/31 01:20:18;;;;;;;;;;;;;;;;;;5033869;28;7175;-68
2022/12/31 01:22:43;;;;;;;;;;;;;;;;;;5034145;28;6920;-68
2022/12/31 01:28:11;;;;;;;;;;;;;;;;;;5033920;28;6989;-68
2022/12/31 01:30:38;;;;;;;;;;;;;;;;;;5032960;28;8684;-68
2022/12/31 01:33:04;;;;;;;;;;;;;;;;;;5037157;28;7077;-68
2022/12/31 01:35:51;;;;;;;;;;;;;;;;;;5037685;28;7114;-68
2022/12/31 01:38:16;;;;;;;;;;;;;;;;;;5038009;28;7164;-68
2022/12/31 01:41:09;;;;;;;;;;;;;;;;;;5037489;28;7105;-68
2022/12/31 01:43:45;;;;;;;;;;;;;;;;;;5037123;28;7233;-68
2022/12/31 01:46:31;;;;;;;;;;;;;;;;;;5037464;28;7191;-69
2022/12/31 01:49:00;;;;;;;;;;;;;;;;;;5036956;28;7129;-68
2022/12/31 01:51:29;;;;;;;;;;;;;;;;;;5036389;28;7301;-68
2022/12/31 01:53:57;;;;;;;;;;;;;;;;;;5036948;28;7240;-69
2022/12/31 01:59:27;;;;;;;;;;;;;;;;;;5036895;28;6853;-68
2022/12/31 02:04:58;;;;;;;;;;;;;;;;;;5036903;28;6700;-69
2022/12/31 02:07:31;;;;;;;;;;;;;;;;;;5036771;28;7226;-68
2022/12/31 02:09:57;;;;;;;;;;;;;;;;;;5036886;28;7067;-69
2022/12/31 02:12:23;;;;;;;;;;;;;;;;;;5036883;28;7180;-68
2022/12/31 02:14:51;;;;;;;;;;;;;;;;;;5036810;28;7004;-68
2022/12/31 02:23:37;;;;;;;;;;;;;;;;;;5036790;28;6685;-69
2022/12/31 02:26:15;;;;;;;;;;;;;;;;;;5035669;28;8555;-69
2022/12/31 02:28:46;;;;;;;;;;;;;;;;;;5036240;28;7203;-69
2022/12/31 02:34:31;;;;;;;;;;;;;;;;;;5035929;28;6787;-69
2022/12/31 02:37:00;;;;;;;;;;;;;;;;;;5036531;28;6963;-68
2022/12/31 02:39:28;;;;;;;;;;;;;;;;;;5036397;28;7187;-68
2022/12/31 02:41:54;;;;;;;;;;;;;;;;;;5036205;28;7164;-69
2022/12/31 02:44:30;;;;;;;;;;;;;;;;;;5036423;28;7199;-69
2022/12/31 02:47:02;;;;;;;;;;;;;;;;;;5036006;28;6987;-68
2022/12/31 02:49:46;;;;;;;;;;;;;;;;;;5035498;28;7151;-68
2022/12/31 02:52:14;;;;;;;;;;;;;;;;;;4996676;28;6939;-68
2022/12/31 02:57:51;;;;;;;;;;;;;;;;;;4996412;28;6934;-68
2022/12/31 03:03:03;;;;;;;;;;;;;;;;;;4996560;28;6965;-68
2022/12/31 03:09:11;;;;;;;;;;;;;;;;;;4996165;28;6696;-69
2022/12/31 03:12:45;;;;;;;;;;;;;;;;;;4996012;28;7217;-69
2022/12/31 03:14:02;;;;;;;;;;;;;;;;;;4995920;28;7288;-68
2022/12/31 03:16:28;;;;;;;;;;;;;;;;;;4997201;28;7089;-68
2022/12/31 03:22:29;;;;;;;;;;;;;;;;;;4996014;28;7060;-68
2022/12/31 03:27:40;;;;;;;;;;;;;;;;;;4996643;28;6790;-69
2022/12/31 03:33:09;;;;;;;;;;;;;;;;;;4995552;28;6945;-68
2022/12/31 03:35:36;;;;;;;;;;;;;;;;;;4996091;28;7366;-68
2022/12/31 03:38:16;;;;;;;;;;;;;;;;;;4995986;28;7212;-69
2022/12/31 03:40:44;;;;;;;;;;;;;;;;;;4995952;28;6990;-68
2022/12/31 03:43:25;;;;;;;;;;;;;;;;;;4995937;28;7165;-69
2022/12/31 03:45:52;;;;;;;;;;;;;;;;;;4995970;28;7354;-68
2022/12/31 03:48:18;;;;;;;;;;;;;;;;;;4995443;28;7277;-68
2022/12/31 03:50:44;;;;;;;;;;;;;;;;;;5010950;28;7099;-68
2022/12/31 03:53:34;;;;;;;;;;;;;;;;;;5034859;28;7054;-69
2022/12/31 03:56:00;;;;;;;;;;;;;;;;;;5034969;28;7223;-68
2022/12/31 04:01:35;;;;;;;;;;;;;;;;;;5034743;28;6900;-69
2022/12/31 04:04:00;;;;;;;;;;;;;;;;;;5034990;28;7207;-68
2022/12/31 04:12:31;;;;;;;;;;;;;;;;;;5034505;28;7060;-68
2022/12/31 04:24:06;;;;;;;;;;;;;;;;;;5034476;28;6940;-69
2022/12/31 04:26:39;;;;;;;;;;;;;;;;;;5034796;28;7012;-68
2022/12/31 04:29:05;;;;;;;;;;;;;;;;;;5035691;28;7244;-68
2022/12/31 04:31:30;;;;;;;;;;;;;;;;;;5034586;28;7171;-69
2022/12/31 04:33:56;;;;;;;;;;;;;;;;;;5034574;28;6948;-68
2022/12/31 04:36:58;;;;;;;;;;;;;;;;;;5034548;28;7025;-68
2022/12/31 04:39:35;;;;;;;;;;;;;;;;;;5034617;28;7149;-68
2022/12/31 04:42:00;;;;;;;;;;;;;;;;;;5034486;28;7188;-68
2022/12/31 04:44:26;;;;;;;;;;;;;;;;;;5034617;28;7172;-68
2022/12/31 04:47:10;;;;;;;;;;;;;;;;;;5034485;28;7406;-68
2022/12/31 04:49:36;;;;;;;;;;;;;;;;;;5034405;28;7246;-68
2022/12/31 04:52:02;;;;;;;;;;;;;;;;;;5030464;28;7206;-68
2022/12/31 04:54:44;;;;;;;;;;;;;;;;;;5034081;28;7218;-68
2022/12/31 04:57:09;;;;;;;;;;;;;;;;;;5034375;28;7261;-68
2022/12/31 04:59:35;;;;;;;;;;;;;;;;;;5034400;28;7198;-68
2022/12/31 05:05:04;;;;;;;;;;;;;;;;;;5034083;28;6993;-68
2022/12/31 05:07:29;;;;;;;;;;;;;;;;;;5037595;28;7117;-74
2022/12/31 05:09:55;;;;;;;;;;;;;;;;;;5038020;28;7109;-68
2022/12/31 05:12:20;;;;;;;;;;;;;;;;;;5038353;28;7165;-68
2022/12/31 05:14:46;;;;;;;;;;;;;;;;;;5038330;28;7140;-68
2022/12/31 05:17:11;;;;;;;;;;;;;;;;;;5037848;28;7122;-68
2022/12/31 05:19:37;;;;;;;;;;;;;;;;;;5037931;28;6908;-68
2022/12/31 05:27:49;;;;;;;;;;;;;;;;;;5038124;28;6682;-68
2022/12/31 05:30:40;;;;;;;;;;;;;;;;;;5037685;28;7109;-69
2022/12/31 05:33:06;;;;;;;;;;;;;;;;;;5037347;28;7207;-69
2022/12/31 05:35:47;;;;;;;;;;;;;;;;;;5036434;28;9298;-69
2022/12/31 05:38:12;;;;;;;;;;;;;;;;;;5037093;28;7437;-69
2022/12/31 05:43:40;;;;;;;;;;;;;;;;;;5037281;28;6755;-69
2022/12/31 05:46:17;;;;;;;;;;;;;;;;;;5037418;28;7153;-69
2022/12/31 05:48:43;;;;;;;;;;;;;;;;;;5037075;28;7199;-68
2022/12/31 05:54:28;;;;;;;;;;;;;;;;;;5037413;28;6764;-69
2022/12/31 05:56:54;;;;;;;;;;;;;;;;;;5038038;28;6962;-68
2022/12/31 05:59:19;;;;;;;;;;;;;;;;;;5036941;28;6947;-69
2022/12/31 06:02:16;;;;;;;;;;;;;;;;;;5037424;28;6980;-69
2022/12/31 06:04:41;;;;;;;;;;;;;;;;;;5036851;28;8353;-68
2022/12/31 06:07:07;;;;;;;;;;;;;;;;;;5037847;28;7153;-69
2022/12/31 06:12:35;;;;;;;;;;;;;;;;;;5036617;28;7058;-69
2022/12/31 06:15:26;;;;;;;;;;;;;;;;;;5036915;28;7317;-68
2022/12/31 06:17:51;;;;;;;;;;;;;;;;;;5036697;28;8998;-68
2022/12/31 06:20:17;;;;;;;;;;;;;;;;;;5036809;28;6936;-69
2022/12/31 06:22:42;;;;;;;;;;;;;;;;;;5036315;28;8260;-69
2022/12/31 06:28:48;;;;;;;;;;;;;;;;;;5036380;28;6908;-68
2022/12/31 06:31:14;;;;;;;;;;;;;;;;;;5036468;28;7189;-69
2022/12/31 06:42:48;;;;;;;;;;;;;;;;;;5036174;28;6827;-69
2022/12/31 06:48:17;;;;;;;;;;;;;;;;;;5036259;28;6681;-70
2022/12/31 06:50:43;;;;;;;;;;;;;;;;;;5036358;28;7138;-69
2022/12/31 06:53:09;;;;;;;;;;;;;;;;;;5036155;28;7117;-69
2022/12/31 06:55:49;;;;;;;;;;;;;;;;;;5036979;28;6983;-69
2022/12/31 06:58:16;;;;;;;;;;;;;;;;;;5035662;28;7964;-69
2022/12/31 07:03:40;;;;;;;;;;;;;;;;;;5036496;28;7028;-69
2022/12/31 07:06:05;;;;;;;;;;;;;;;;;;5019431;28;7061;-69
2022/12/31 07:09:04;;;;;;;;;;;;;;;;;;5036318;28;7347;-69
2022/12/31 07:14:14;;;;;;;;;;;;;;;;;;5036337;28;7059;-69
2022/12/31 07:16:59;;;;;;;;;;;;;;;;;;5088927;23;7319;-69
2022/12/31 07:19:43;;;;;;;;;;;;;;;;;;4994370;28;7205;-69
2022/12/31 07:22:13;;;;;;;;;;;;;;;;;;5004337;28;7244;-70
2022/12/31 07:33:40;;;;;;;;;;;;;;;;;;5015664;28;6831;-70
2022/12/31 07:36:09;;;;;;;;;;;;;;;;;;5016368;28;7596;-70
2022/12/31 07:41:47;;;;;;;;;;;;;;;;;;5015468;28;6692;-70
2022/12/31 07:44:31;;;;;;;;;;;;;;;;;;5016081;28;7465;-70
2022/12/31 07:46:59;;;;;;;;;;;;;;;;;;5015767;28;7142;-70
2022/12/31 07:49:26;;;;;;;;;;;;;;;;;;5015289;28;7198;-70
2022/12/31 07:51:53;;;;;;;;;;;;;;;;;;5015297;28;7236;-70
2022/12/31 07:54:18;;;;;;;;;;;;;;;;;;5014997;28;7959;-70
2022/12/31 07:56:59;;;;;;;;;;;;;;;;;;5015738;28;7024;-70
2022/12/31 08:05:42;;;;;;;;;;;;;;;;;;5015046;28;6995;-70
2022/12/31 08:20:55;;;;;;;;;;;;;;;;;;4995223;28;6759;-69
2022/12/31 08:26:19;;;;;;;;;;;;;;;;;;4996072;28;6935;-69
2022/12/31 08:29:18;;;;;;;;;;;;;;;;;;4995588;28;7162;-69
2022/12/31 08:31:46;;;;;;;;;;;;;;;;;;4995970;28;7099;-69
2022/12/31 08:34:18;;;;;;;;;;;;;;;;;;4995311;28;7430;-69
2022/12/31 08:48:52;;;;;;;;;;;;;;;;;;4998943;28;6916;-69
2022/12/31 08:51:22;;;;;;;;;;;;;;;;;;4999051;28;7216;-69
2022/12/31 08:53:48;;;;;;;;;;;;;;;;;;4999845;28;7140;-69
2022/12/31 08:56:26;;;;;;;;;;;;;;;;;;4998669;28;7927;-69
2022/12/31 08:59:03;;;;;;;;;;;;;;;;;;4998916;28;7230;-69
2022/12/31 09:01:35;;;;;;;;;;;;;;;;;;4998552;28;7059;-69
2022/12/31 09:04:10;;;;;;;;;;;;;;;;;;4998998;28;7232;-69
2022/12/31 09:06:48;;;;;;;;;;;;;;;;;;4998747;28;7800;-69
2022/12/31 09:12:47;;;;;;;;;;;;;;;;;;4972821;28;6975;-69
2022/12/31 09:15:30;;;;;;;;;;;;;;;;;;4998493;28;7407;-69
2022/12/31 09:17:56;;;;;;;;;;;;;;;;;;4992707;28;7145;-70
2022/12/31 09:20:27;;;;;;;;;;;;;;;;;;4998643;28;6999;-70
2022/12/31 09:22:54;;;;;;;;;;;;;;;;;;4998318;28;7047;-70
2022/12/31 09:25:21;;;;;;;;;;;;;;;;;;4998439;28;7270;-70
2022/12/31 09:28:02;;;;;;;;;;;;;;;;;;4998276;28;6975;-70
2022/12/31 09:31:05;;;;;;;;;;;;;;;;;;4998249;28;7083;-70
2022/12/31 09:33:40;;;;;;;;;;;;;;;;;;4998437;28;7229;-70
2022/12/31 09:36:08;;;;;;;;;;;;;;;;;;4998189;28;7239;-70
2022/12/31 09:41:39;;;;;;;;;;;;;;;;;;4998352;28;6930;-70
2022/12/31 09:44:17;;;;;;;;;;;;;;;;;;4998506;28;7384;-70
2022/12/31 09:47:09;;;;;;;;;;;;;;;;;;4997687;28;7806;-70
2022/12/31 09:52:54;;;;;;;;;;;;;;;;;;4956323;28;6688;-70
2022/12/31 09:55:31;;;;;;;;;;;;;;;;;;4957416;28;7621;-70
2022/12/31 09:58:19;;;;;;;;;;;;;;;;;;4957058;28;7625;-70
2022/12/31 10:00:52;;;;;;;;;;;;;;;;;;4957174;28;6943;-70
2022/12/31 10:03:17;;;;;;;;;;;;;;;;;;4957483;28;7239;-69
2022/12/31 10:09:01;;;;;;;;;;;;;;;;;;4957228;28;6961;-69
2022/12/31 10:11:55;;;;;;;;;;;;;;;;;;4957246;28;7084;-69
2022/12/31 10:14:38;;;;;;;;;;;;;;;;;;4956687;28;7158;-69
2022/12/31 10:17:06;;;;;;;;;;;;;;;;;;4956775;28;8036;-70
2022/12/31 10:19:50;;;;;;;;;;;;;;;;;;4956464;28;7089;-70
2022/12/31 10:22:35;;;;;;;;;;;;;;;;;;4956551;28;7583;-70
2022/12/31 10:28:23;;;;;;;;;;;;;;;;;;4994967;28;6788;-70
2022/12/31 10:31:07;;;;;;;;;;;;;;;;;;4993758;28;7187;-70
2022/12/31 10:33:33;;;;;;;;;;;;;;;;;;4977651;28;7291;-70
2022/12/31 10:36:07;;;;;;;;;;;;;;;;;;4977726;28;7279;-70
2022/12/31 10:38:51;;;;;;;;;;;;;;;;;;4977229;28;6954;-70
2022/12/31 10:44:42;;;;;;;;;;;;;;;;;;4977259;28;6991;-70
2022/12/31 10:47:26;;;;;;;;;;;;;;;;;;4975395;28;7520;-70
2022/12/31 10:53:18;;;;;;;;;;;;;;;;;;4975684;28;6956;-70
2022/12/31 11:02:27;;;;;;;;;;;;;;;;;;4975771;28;6689;-70
2022/12/31 11:11:19;;;;;;;;;;;;;;;;;;4975148;28;6934;-70
2022/12/31 11:14:02;;;;;;;;;;;;;;;;;;4975131;28;7030;-70
2022/12/31 11:20:02;;;;;;;;;;;;;;;;;;4974161;28;6991;-70
2022/12/31 11:22:28;;;;;;;;;;;;;;;;;;4968962;28;7091;-70
2022/12/31 11:28:06;;;;;;;;;;;;;;;;;;4990607;28;6748;-70
2022/12/31 11:40:02;;;;;;;;;;;;;;;;;;4978521;28;6724;-69
2022/12/31 11:42:36;;;;;;;;;;;;;;;;;;4990154;28;7124;-69
2022/12/31 11:50:51;;;;;;;;;;;;;;;;;;4994793;28;7099;-70
2022/12/31 11:53:33;;;;;;;;;;;;;;;;;;4980788;28;7596;-70
2022/12/31 11:56:08;;;;;;;;;;;;;;;;;;4984201;28;7521;-70
2022/12/31 11:58:33;;;;;;;;;;;;;;;;;;4992896;28;6993;-70
2022/12/31 12:07:14;;;;;;;;;;;;;;;;;;4990241;28;6749;-70
2022/12/31 12:09:45;;;;;;;;;;;;;;;;;;4977318;28;7030;-70
2022/12/31 12:12:11;;;;;;;;;;;;;;;;;;4975627;28;7174;-71
2022/12/31 12:17:39;;;;;;;;;;;;;;;;;;4975685;28;6994;-70
2022/12/31 12:20:17;;;;;;;;;;;;;;;;;;4990636;28;7068;-70
2022/12/31 12:25:41;;;;;;;;;;;;;;;;;;4995325;28;7808;-70
2022/12/31 12:37:24;;;;;;;;;;;;;;;;;;4995462;28;6928;-70
2022/12/31 12:40:15;;;;;;;;;;;;;;;;;;5004163;28;7168;-70
2022/12/31 12:42:51;;;;;;;;;;;;;;;;;;5013429;28;9111;-72
2022/12/31 12:45:29;;;;;;;;;;;;;;;;;;5013338;28;8792;-70
2022/12/31 12:50:59;;;;;;;;;;;;;;;;;;5014290;28;6745;-70
2022/12/31 12:53:36;;;;;;;;;;;;;;;;;;5014589;28;7380;-70
2022/12/31 12:56:17;;;;;;;;;;;;;;;;;;5014734;28;7423;-70
2022/12/31 12:59:02;;;;;;;;;;;;;;;;;;5014474;28;7197;-70
2022/12/31 13:01:46;;;;;;;;;;;;;;;;;;5014909;28;7152;-71
2022/12/31 13:04:36;;;;;;;;;;;;;;;;;;5014372;28;8438;-70
2022/12/31 13:07:24;;;;;;;;;;;;;;;;;;5009160;28;7058;-70
2022/12/31 13:10:16;;;;;;;;;;;;;;;;;;5014854;28;7247;-70
2022/12/31 13:12:49;;;;;;;;;;;;;;;;;;5014436;28;6818;-70
2022/12/31 13:15:33;;;;;;;;;;;;;;;;;;5014201;28;7164;-70
2022/12/31 13:24:39;;;;;;;;;;;;;;;;;;5014146;28;6746;-70
2022/12/31 13:27:27;;;;;;;;;;;;;;;;;;5016133;28;7531;-71
2022/12/31 13:29:55;;;;;;;;;;;;;;;;;;5001416;28;8488;-70
2022/12/31 13:32:28;;;;;;;;;;;;;;;;;;5017988;28;7214;-70
2022/12/31 13:34:59;;;;;;;;;;;;;;;;;;5017846;28;7165;-70
2022/12/31 13:37:34;;;;;;;;;;;;;;;;;;5017549;28;7238;-70
2022/12/31 13:46:15;;;;;;;;;;;;;;;;;;5017786;28;6928;-71
2022/12/31 13:51:44;;;;;;;;;;;;;;;;;;5017683;28;6946;-71
2022/12/31 13:54:21;;;;;;;;;;;;;;;;;;5018002;28;7107;-71
2022/12/31 13:56:48;;;;;;;;;;;;;;;;;;5013946;28;7203;-71
2022/12/31 13:59:44;;;;;;;;;;;;;;;;;;5001204;28;7851;-71
2022/12/31 14:02:39;;;;;;;;;;;;;;;;;;4997642;28;7467;-69
2022/12/31 14:05:10;;;;;;;;;;;;;;;;;;4997411;28;7224;-69
2022/12/31 14:07:55;;;;;;;;;;;;;;;;;;4997354;28;8022;-69
2022/12/31 14:13:45;;;;;;;;;;;;;;;;;;4997493;28;6997;-70
2022/12/31 14:16:18;;;;;;;;;;;;;;;;;;5008670;28;7362;-71
2022/12/31 14:19:00;;;;;;;;;;;;;;;;;;5015839;28;7638;-71
2022/12/31 14:21:43;;;;;;;;;;;;;;;;;;5013509;28;7538;-71
2022/12/31 14:24:36;;;;;;;;;;;;;;;;;;4997315;28;7204;-71
2022/12/31 14:27:06;;;;;;;;;;;;;;;;;;4994528;28;7278;-71
2022/12/31 14:35:36;;;;;;;;;;;;;;;;;;4997511;28;7016;-71
2022/12/31 14:38:20;;;;;;;;;;;;;;;;;;4996714;28;7183;-71
2022/12/31 14:44:07;;;;;;;;;;;;;;;;;;4997012;28;6933;-71
2022/12/31 14:46:45;;;;;;;;;;;;;;;;;;4997863;28;7053;-71
2022/12/31 14:49:30;;;;;;;;;;;;;;;;;;4997222;28;7039;-71
2022/12/31 14:57:55;;;;;;;;;;;;;;;;;;4996791;28;6933;-71
2022/12/31 15:03:37;;;;;;;;;;;;;;;;;;4996429;28;6688;-71
2022/12/31 15:06:21;;;;;;;;;;;;;;;;;;4996597;28;7082;-71
2022/12/31 15:09:05;;;;;;;;;;;;;;;;;;4996518;28;7214;-71
2022/12/31 15:14:31;;;;;;;;;;;;;;;;;;4996582;28;7010;-71
2022/12/31 15:17:03;;;;;;;;;;;;;;;;;;4996404;28;7176;-71
2022/12/31 15:19:55;;;;;;;;;;;;;;;;;;5010038;28;7207;-71
2022/12/31 15:22:21;;;;;;;;;;;;;;;;;;5015995;28;7209;-71
2022/12/31 15:27:49;;;;;;;;;;;;;;;;;;5015495;28;6920;-71
2022/12/31 15:30:27;;;;;;;;;;;;;;;;;;5015678;28;8237;-71
2022/12/31 15:32:54;;;;;;;;;;;;;;;;;;5015635;28;7579;-71
2022/12/31 15:35:20;;;;;;;;;;;;;;;;;;5015652;28;6955;-70
2022/12/31 15:38:05;;;;;;;;;;;;;;;;;;5015581;28;7082;-70
2022/12/31 15:43:45;;;;;;;;;;;;;;;;;;4955113;28;7057;-70
2022/12/31 15:46:42;;;;;;;;;;;;;;;;;;4955280;28;7234;-70
2022/12/31 15:49:10;;;;;;;;;;;;;;;;;;4954727;28;7080;-70
2022/12/31 15:51:45;;;;;;;;;;;;;;;;;;4954788;28;7114;-70
2022/12/31 15:54:35;;;;;;;;;;;;;;;;;;4955121;28;6831;-70
2022/12/31 15:57:01;;;;;;;;;;;;;;;;;;4943331;28;6864;-70
2022/12/31 15:59:47;;;;;;;;;;;;;;;;;;4936073;29;7224;-71
2022/12/31 16:02:41;;;;;;;;;;;;;;;;;;4919748;29;8880;-71
2022/12/31 16:05:45;;;;;;;;;;;;;;;;;;4934046;29;7242;-71
2022/12/31 16:08:17;;;;;;;;;;;;;;;;;;4924243;29;7447;-71
2022/12/31 16:10:45;;;;;;;;;;;;;;;;;;4933512;29;7291;-71
2022/12/31 16:28:47;;;;;;;;;;;;;;;;;;4995216;28;6686;-71
2022/12/31 16:31:18;;;;;;;;;;;;;;;;;;4995289;28;7189;-71
2022/12/31 16:33:47;;;;;;;;;;;;;;;;;;4995288;28;7413;-71
2022/12/31 16:36:18;;;;;;;;;;;;;;;;;;4995415;28;6972;-71
2022/12/31 16:38:44;;;;;;;;;;;;;;;;;;4995129;28;7373;-71
2022/12/31 16:41:20;;;;;;;;;;;;;;;;;;4995824;28;7227;-71
2022/12/31 16:43:52;;;;;;;;;;;;;;;;;;4995129;28;8914;-71
2022/12/31 16:46:24;;;;;;;;;;;;;;;;;;4995334;28;6954;-71
2022/12/31 16:49:22;;;;;;;;;;;;;;;;;;4995417;28;6989;-71
2022/12/31 16:51:50;;;;;;;;;;;;;;;;;;4994838;28;6955;-71
2022/12/31 16:54:24;;;;;;;;;;;;;;;;;;4995192;28;7175;-71
2022/12/31 16:56:50;;;;;;;;;;;;;;;;;;4995124;28;7401;-71
2022/12/31 17:08:50;;;;;;;;;;;;;;;;;;4998571;28;6927;-71
2022/12/31 17:11:23;;;;;;;;;;;;;;;;;;4997556;28;7004;-71
2022/12/31 17:17:24;;;;;;;;;;;;;;;;;;5006034;28;6734;-71
2022/12/31 17:20:08;;;;;;;;;;;;;;;;;;5013148;28;7259;-71
2022/12/31 17:22:38;;;;;;;;;;;;;;;;;;5018119;28;7636;-71
2022/12/31 17:28:42;;;;;;;;;;;;;;;;;;5017868;28;6691;-71
2022/12/31 17:34:12;;;;;;;;;;;;;;;;;;5018421;28;6821;-71
2022/12/31 17:39:44;;;;;;;;;;;;;;;;;;5018069;28;7017;-71
2022/12/31 17:42:12;;;;;;;;;;;;;;;;;;5017714;28;6980;-71
2022/12/31 17:47:44;;;;;;;;;;;;;;;;;;5018048;28;6935;-71
2022/12/31 17:50:19;;;;;;;;;;;;;;;;;;5017642;28;7218;-71
2022/12/31 17:52:45;;;;;;;;;;;;;;;;;;5017420;28;7004;-71
2022/12/31 17:55:46;;;;;;;;;;;;;;;;;;5017268;28;7407;-71
2022/12/31 17:58:26;;;;;;;;;;;;;;;;;;5017731;28;7159;-71
2022/12/31 18:01:11;;;;;;;;;;;;;;;;;;5017139;28;7603;-71
2022/12/31 18:03:37;;;;;;;;;;;;;;;;;;5017156;28;6835;-71
2022/12/31 18:09:16;;;;;;;;;;;;;;;;;;5017056;28;7388;-71
2022/12/31 18:11:44;;;;;;;;;;;;;;;;;;5017930;28;7160;-71
2022/12/31 18:14:14;;;;;;;;;;;;;;;;;;5016632;28;7431;-71
2022/12/31 18:16:42;;;;;;;;;;;;;;;;;;5017077;28;6982;-71
2022/12/31 18:19:22;;;;;;;;;;;;;;;;;;5016830;28;7244;-71
2022/12/31 18:21:48;;;;;;;;;;;;;;;;;;5016660;28;7888;-71
2022/12/31 18:24:32;;;;;;;;;;;;;;;;;;5016696;28;7205;-71
2022/12/31 18:26:57;;;;;;;;;;;;;;;;;;4997225;28;7419;-71
2022/12/31 18:29:23;;;;;;;;;;;;;;;;;;4997304;28;7202;-71
2022/12/31 18:32:25;;;;;;;;;;;;;;;;;;4997312;28;6810;-71
2022/12/31 18:34:51;;;;;;;;;;;;;;;;;;4997161;28;6799;-71
2022/12/31 18:37:18;;;;;;;;;;;;;;;;;;4997264;28;7394;-71
2022/12/31 18:46:13;;;;;;;;;;;;;;;;;;4996830;28;7564;-71
2022/12/31 18:48:43;;;;;;;;;;;;;;;;;;4997083;28;7203;-71
2022/12/31 18:51:15;;;;;;;;;;;;;;;;;;4996462;28;8229;-71
2022/12/31 18:53:41;;;;;;;;;;;;;;;;;;4996953;28;7204;-71
2022/12/31 18:56:11;;;;;;;;;;;;;;;;;;4996855;28;6933;-71
2022/12/31 18:59:03;;;;;;;;;;;;;;;;;;4996745;28;7597;-71
2022/12/31 19:01:37;;;;;;;;;;;;;;;;;;4996691;28;7380;-71
2022/12/31 19:04:20;;;;;;;;;;;;;;;;;;4996698;28;7033;-71
2022/12/31 19:06:47;;;;;;;;;;;;;;;;;;4996592;28;7401;-71
2022/12/31 19:09:13;;;;;;;;;;;;;;;;;;4996557;28;6996;-71
2022/12/31 19:11:39;;;;;;;;;;;;;;;;;;4996561;28;7192;-71
2022/12/31 19:14:17;;;;;;;;;;;;;;;;;;4996480;28;7264;-71
2022/12/31 19:16:43;;;;;;;;;;;;;;;;;;4995873;28;7203;-71
2022/12/31 19:19:08;;;;;;;;;;;;;;;;;;4995986;28;6964;-71
2022/12/31 19:21:34;;;;;;;;;;;;;;;;;;4995978;28;6921;-71
2022/12/31 19:23:59;;;;;;;;;;;;;;;;;;4995524;28;7179;-71
2022/12/31 19:29:27;;;;;;;;;;;;;;;;;;4995966;28;7240;-71
2022/12/31 19:32:31;;;;;;;;;;;;;;;;;;4996076;28;7353;-71
2022/12/31 19:34:57;;;;;;;;;;;;;;;;;;4974746;28;7416;-71
2022/12/31 19:37:23;;;;;;;;;;;;;;;;;;4975159;28;7209;-71
2022/12/31 19:40:20;;;;;;;;;;;;;;;;;;4974666;28;7230;-71
2022/12/31 19:42:47;;;;;;;;;;;;;;;;;;4974431;28;7086;-71
2022/12/31 19:45:17;;;;;;;;;;;;;;;;;;4974440;28;7160;-71
2022/12/31 19:47:48;;;;;;;;;;;;;;;;;;4975436;28;7132;-71
2022/12/31 19:50:16;;;;;;;;;;;;;;;;;;4959867;28;7148;-71
2022/12/31 19:52:42;;;;;;;;;;;;;;;;;;4954928;28;6978;-71
2022/12/31 19:55:30;;;;;;;;;;;;;;;;;;4955008;28;7204;-71
2022/12/31 19:57:56;;;;;;;;;;;;;;;;;;4971161;28;7190;-71
2022/12/31 20:00:21;;;;;;;;;;;;;;;;;;4974030;28;7037;-71
2022/12/31 20:06:24;;;;;;;;;;;;;;;;;;4988034;28;6704;-71
2022/12/31 20:08:50;;;;;;;;;;;;;;;;;;5001245;28;9401;-71
2022/12/31 20:11:18;;;;;;;;;;;;;;;;;;4995468;28;7134;-71
2022/12/31 20:13:45;;;;;;;;;;;;;;;;;;4995444;28;7191;-71
2022/12/31 20:19:20;;;;;;;;;;;;;;;;;;4995239;28;7010;-71
2022/12/31 20:21:45;;;;;;;;;;;;;;;;;;4995475;28;7928;-71
2022/12/31 20:24:11;;;;;;;;;;;;;;;;;;4995417;28;7154;-71
2022/12/31 20:26:37;;;;;;;;;;;;;;;;;;4995487;28;7489;-71
2022/12/31 20:29:02;;;;;;;;;;;;;;;;;;4994964;28;6924;-71
2022/12/31 20:31:46;;;;;;;;;;;;;;;;;;4995402;28;7175;-71
2022/12/31 20:34:11;;;;;;;;;;;;;;;;;;4995330;28;7194;-71
2022/12/31 20:36:37;;;;;;;;;;;;;;;;;;4997791;28;6916;-71
2022/12/31 20:44:58;;;;;;;;;;;;;;;;;;5018981;28;6933;-71
2022/12/31 20:47:23;;;;;;;;;;;;;;;;;;5014170;28;8488;-71
2022/12/31 20:50:12;;;;;;;;;;;;;;;;;;5010232;28;7273;-71
2022/12/31 20:52:38;;;;;;;;;;;;;;;;;;5018647;28;6881;-71
2022/12/31 20:55:04;;;;;;;;;;;;;;;;;;5019059;28;7370;-71
2022/12/31 21:00:20;;;;;;;;;;;;;;;;;;5019022;28;6926;-71
2022/12/31 21:02:45;;;;;;;;;;;;;;;;;;5018127;28;6842;-71
2022/12/31 21:05:11;;;;;;;;;;;;;;;;;;5019379;28;6941;-71
2022/12/31 21:08:10;;;;;;;;;;;;;;;;;;5018504;28;6903;-71
2022/12/31 21:10:36;;;;;;;;;;;;;;;;;;5019134;28;7188;-71
2022/12/31 21:13:01;;;;;;;;;;;;;;;;;;5017981;28;7197;-71
2022/12/31 21:18:42;;;;;;;;;;;;;;;;;;5018115;28;6932;-71
2022/12/31 21:21:09;;;;;;;;;;;;;;;;;;5018195;28;7155;-71
2022/12/31 21:23:35;;;;;;;;;;;;;;;;;;5001360;28;9483;-71
2022/12/31 21:26:01;;;;;;;;;;;;;;;;;;5018143;28;7200;-71
2022/12/31 21:28:26;;;;;;;;;;;;;;;;;;5017801;28;6986;-71
2022/12/31 21:33:55;;;;;;;;;;;;;;;;;;5017815;28;6979;-71
2022/12/31 21:36:44;;;;;;;;;;;;;;;;;;5017658;28;7104;-71
2022/12/31 21:39:09;;;;;;;;;;;;;;;;;;5017761;28;7190;-71
2022/12/31 21:41:52;;;;;;;;;;;;;;;;;;5018098;28;6939;-71
2022/12/31 21:44:23;;;;;;;;;;;;;;;;;;5016503;28;8866;-71
2022/12/31 21:49:50;;;;;;;;;;;;;;;;;;5017692;28;6907;-71
2022/12/31 21:58:03;;;;;;;;;;;;;;;;;;4998752;28;6684;-71
2022/12/31 22:03:28;;;;;;;;;;;;;;;;;;4997914;28;6796;-71
2022/12/31 22:05:58;;;;;;;;;;;;;;;;;;4997598;28;7140;-71
2022/12/31 22:08:25;;;;;;;;;;;;;;;;;;4998325;28;7192;-71
2022/12/31 22:11:03;;;;;;;;;;;;;;;;;;4997723;28;7181;-71
2022/12/31 22:13:29;;;;;;;;;;;;;;;;;;4997574;28;7232;-71
2022/12/31 22:15:56;;;;;;;;;;;;;;;;;;4997786;28;7222;-71
2022/12/31 22:18:22;;;;;;;;;;;;;;;;;;4997415;28;7379;-71
2022/12/31 22:20:48;;;;;;;;;;;;;;;;;;4997895;28;7146;-71
2022/12/31 22:23:13;;;;;;;;;;;;;;;;;;4999285;28;7429;-71
2022/12/31 22:28:43;;;;;;;;;;;;;;;;;;4997283;28;6694;-71
2022/12/31 22:37:14;;;;;;;;;;;;;;;;;;4997059;28;7541;-71
2022/12/31 22:39:46;;;;;;;;;;;;;;;;;;4979819;28;8450;-71
2022/12/31 22:42:12;;;;;;;;;;;;;;;;;;5005794;28;7123;-71
2022/12/31 22:44:55;;;;;;;;;;;;;;;;;;5016466;28;7027;-71
2022/12/31 22:47:21;;;;;;;;;;;;;;;;;;5016874;28;7314;-71
2022/12/31 22:49:46;;;;;;;;;;;;;;;;;;5016098;28;6979;-71
2022/12/31 22:52:26;;;;;;;;;;;;;;;;;;5016456;28;7080;-71
2022/12/31 22:54:52;;;;;;;;;;;;;;;;;;5016699;28;7066;-71
2022/12/31 22:57:17;;;;;;;;;;;;;;;;;;5016487;28;7108;-71
2022/12/31 23:00:08;;;;;;;;;;;;;;;;;;5016194;28;7191;-71
2022/12/31 23:02:34;;;;;;;;;;;;;;;;;;5016629;28;7212;-71
2022/12/31 23:04:59;;;;;;;;;;;;;;;;;;5016266;28;7157;-71
2022/12/31 23:24:46;;;;;;;;;;;;;;;;;;5016066;28;6947;-72
2022/12/31 23:27:26;;;;;;;;;;;;;;;;;;5015536;28;6798;-71
2022/12/31 23:29:52;;;;;;;;;;;;;;;;;;5015730;28;7174;-71
2022/12/31 23:32:18;;;;;;;;;;;;;;;;;;5015837;28;7242;-71
2022/12/31 23:37:46;;;;;;;;;;;;;;;;;;5015548;28;6931;-71
2022/12/31 23:40:13;;;;;;;;;;;;;;;;;;5015345;28;7357;-71
2022/12/31 23:42:38;;;;;;;;;;;;;;;;;;4997988;28;8427;-71
2022/12/31 23:45:04;;;;;;;;;;;;;;;;;;5015979;28;7136;-71
2022/12/31 23:47:57;;;;;;;;;;;;;;;;;;5015464;28;7334;-72
2022/12/31 23:50:39;;;;;;;;;;;;;;;;;;5015447;28;7152;-71
2022/12/31 23:53:04;;;;;;;;;;;;;;;;;;5015559;28;7432;-71
2022/12/31 23:55:31;;;;;;;;;;;;;;;;;;4998573;28;9366;-71
2022/12/31 23:58:11;;;;;;;;;;;;;;;;;;5015313;28;7344;-71
